Terminal Aerodrome Forecast
Issued by NWS

Current Version | Previous Version | Graphics & Text | Print | Product List | Glossary On
Versions: 1 2 3 4 5 6 7 8 9 10 11 12 13 14 15 16 17 18 19 20 21 22 23 24
000
FTUS41 KRLX 150822 AAA
TAFCKB
TAF AMD
KCKB 150822Z 1508/1606 00000KT P6SM FEW250
     FM151200 19004KT P6SM FEW050
     FM151400 21010G21KT P6SM FEW120
     FM152200 23009G16KT P6SM BKN015
     FM152300 23009G15KT 5SM SHRA BR OVC015
     FM160000 23009G15KT 4SM SHRA BR OVC005
     FM160100 25009KT 5SM SHRA BR OVC015
     FM160300 32008KT P6SM BKN025=

USA.gov is the U.S. government's official web portal to all federal, state and local government web resources and services.